createdAt,value
2022-10-03T00:00:15.989Z,14.71
2022-10-03T00:03:10.431Z,14.71
2022-10-03T00:06:04.490Z,14.70
2022-10-03T00:09:08.305Z,14.70
2022-10-03T00:11:44.004Z,14.65
2022-10-03T00:14:18.982Z,14.62
2022-10-03T00:16:54.751Z,14.62
2022-10-03T00:19:33.619Z,14.61
2022-10-03T00:22:03.251Z,14.61
2022-10-03T00:24:41.533Z,14.61
2022-10-03T00:27:32.773Z,14.61
2022-10-03T00:30:13.673Z,14.63
2022-10-03T00:32:49.147Z,14.60
2022-10-03T00:35:50.833Z,14.58
2022-10-03T00:38:54.366Z,14.55
2022-10-03T00:41:39.863Z,14.50
2022-10-03T00:44:20.231Z,14.41
2022-10-03T00:47:06.207Z,14.39
2022-10-03T00:49:54.591Z,14.36
2022-10-03T00:52:51.990Z,14.31
2022-10-03T00:55:34.631Z,14.31
2022-10-03T00:58:39.456Z,14.25
2022-10-03T01:01:29.322Z,14.24
2022-10-03T01:04:14.378Z,14.28
2022-10-03T01:06:49.374Z,14.27
2022-10-03T01:09:42.544Z,14.25
2022-10-03T01:12:25.524Z,14.24
2022-10-03T01:15:11.998Z,14.23
2022-10-03T01:18:10.410Z,14.22
2022-10-03T01:20:39.950Z,14.18
2022-10-03T01:23:31.538Z,14.13
2022-10-03T01:26:22.473Z,14.10
2022-10-03T01:29:36.844Z,14.08
2022-10-03T01:32:11.189Z,14.08
2022-10-03T01:34:51.929Z,14.06
2022-10-03T01:37:30.294Z,14.03
2022-10-03T01:40:09.114Z,13.98
2022-10-03T01:42:45.526Z,13.96
2022-10-03T01:45:23.600Z,13.96
2022-10-03T01:47:58.732Z,13.93
2022-10-03T01:50:33.587Z,13.91
2022-10-03T01:53:15.008Z,13.95
2022-10-03T01:56:00.326Z,13.94
2022-10-03T01:58:47.966Z,13.94
2022-10-03T02:02:00.882Z,13.93
2022-10-03T02:04:52.015Z,13.93
2022-10-03T02:07:49.745Z,13.95
2022-10-03T02:10:51.047Z,13.94
2022-10-03T02:13:37.189Z,13.93
2022-10-03T02:16:15.670Z,13.88
2022-10-03T02:18:46.498Z,13.86
2022-10-03T02:21:22.856Z,13.87
2022-10-03T02:24:06.347Z,13.85
2022-10-03T02:26:51.340Z,13.84
2022-10-03T02:29:39.204Z,13.84
2022-10-03T02:32:28.295Z,13.81
2022-10-03T02:35:08.268Z,13.78
2022-10-03T02:37:37.942Z,13.74
2022-10-03T02:40:48.535Z,13.76
2022-10-03T02:43:42.975Z,13.73
2022-10-03T02:46:40.773Z,13.72
2022-10-03T02:49:13.260Z,13.70
2022-10-03T02:52:05.780Z,13.67
2022-10-03T02:54:44.668Z,13.63
2022-10-03T02:57:20.095Z,13.63
2022-10-03T03:00:05.612Z,13.62
2022-10-03T03:03:10.002Z,13.62
2022-10-03T03:06:29.544Z,13.60
2022-10-03T03:09:33.023Z,13.59
2022-10-03T03:12:14.993Z,13.61
2022-10-03T03:14:57.763Z,13.65
2022-10-03T03:17:36.265Z,13.64
2022-10-03T03:20:11.246Z,13.62
2022-10-03T03:23:15.179Z,13.62
2022-10-03T03:26:08.148Z,13.62
2022-10-03T03:29:10.435Z,13.60
2022-10-03T03:32:00.649Z,13.54
2022-10-03T03:34:49.607Z,13.54
2022-10-03T03:37:29.698Z,13.52
2022-10-03T03:40:14.652Z,13.51
2022-10-03T03:42:59.472Z,13.51
2022-10-03T03:45:51.907Z,13.52
2022-10-03T03:49:05.443Z,13.52
2022-10-03T03:51:56.990Z,13.53
2022-10-03T03:54:45.827Z,13.52
2022-10-03T03:57:27.905Z,13.52
2022-10-03T04:00:12.645Z,13.52
2022-10-03T04:02:45.764Z,13.48
2022-10-03T04:05:38.493Z,13.44
2022-10-03T04:08:23.553Z,13.45
2022-10-03T04:11:12.477Z,13.46
2022-10-03T04:14:16.807Z,13.44
2022-10-03T04:17:30.802Z,13.40
2022-10-03T04:20:28.359Z,13.39
2022-10-03T04:23:46.394Z,13.37
2022-10-03T04:26:22.094Z,13.35
2022-10-03T04:29:29.372Z,13.35
2022-10-03T04:32:11.602Z,13.33
2022-10-03T04:35:01.013Z,13.35
2022-10-03T04:38:12.447Z,13.35
2022-10-03T04:41:03.173Z,13.33
2022-10-03T04:43:43.951Z,13.30
2022-10-03T04:46:35.650Z,13.34
2022-10-03T04:49:29.638Z,13.34
2022-10-03T04:52:02.925Z,13.35
2022-10-03T04:54:35.772Z,13.33
2022-10-03T04:57:02.412Z,13.34
2022-10-03T04:59:38.609Z,13.31
2022-10-03T05:02:20.786Z,13.29
2022-10-03T05:05:11.297Z,13.26
2022-10-03T05:07:42.672Z,13.25
2022-10-03T05:10:42.061Z,13.27
2022-10-03T05:13:33.062Z,13.31
2022-10-03T05:16:10.238Z,13.34
2022-10-03T05:19:06.881Z,13.35
2022-10-03T05:21:56.291Z,13.35
2022-10-03T05:24:29.875Z,13.33
2022-10-03T05:27:17.613Z,13.30
2022-10-03T05:29:51.561Z,13.31
2022-10-03T05:32:36.821Z,13.32
2022-10-03T05:35:06.528Z,13.32
2022-10-03T05:37:41.959Z,13.34
2022-10-03T05:40:27.205Z,13.36
2022-10-03T05:43:20.115Z,13.35
2022-10-03T05:46:10.141Z,13.36
2022-10-03T05:48:52.604Z,13.36
2022-10-03T05:52:12.921Z,13.38
2022-10-03T05:55:07.418Z,13.39
2022-10-03T05:57:43.200Z,13.41
2022-10-03T06:00:29.839Z,13.43
2022-10-03T06:03:23.604Z,13.42
2022-10-03T06:06:01.081Z,13.46
2022-10-03T06:08:48.625Z,13.46
2022-10-03T06:11:34.875Z,13.47
2022-10-03T06:14:35.473Z,13.48
2022-10-03T06:17:32.698Z,13.51
2022-10-03T06:20:23.307Z,13.50
2022-10-03T06:23:08.528Z,13.51
2022-10-03T06:25:50.475Z,13.50
2022-10-03T06:28:41.913Z,13.51
2022-10-03T06:31:59.234Z,13.56
2022-10-03T06:35:21.888Z,13.61
2022-10-03T06:38:09.886Z,13.61
2022-10-03T06:41:04.157Z,13.61
2022-10-03T06:44:04.285Z,13.62
2022-10-03T06:46:40.266Z,13.64
2022-10-03T06:49:16.203Z,13.69
2022-10-03T06:51:58.053Z,13.69
2022-10-03T06:55:04.593Z,13.70
2022-10-03T06:58:11.709Z,13.73
2022-10-03T07:01:12.638Z,13.75
2022-10-03T07:04:11.293Z,13.77
2022-10-03T07:07:19.439Z,13.79
2022-10-03T07:10:16.217Z,13.81
2022-10-03T07:13:06.485Z,13.84
2022-10-03T07:16:20.629Z,13.88
2022-10-03T07:19:13.769Z,13.89
2022-10-03T07:22:13.635Z,13.91
2022-10-03T07:25:27.776Z,13.93
2022-10-03T07:28:05.330Z,13.96
2022-10-03T07:31:22.321Z,13.99
2022-10-03T07:34:12.367Z,14.04
2022-10-03T07:37:22.506Z,14.06
2022-10-03T07:40:19.806Z,14.09
2022-10-03T07:43:28.595Z,14.12
2022-10-03T07:46:07.503Z,14.16
2022-10-03T07:49:17.633Z,14.19
2022-10-03T07:52:22.597Z,14.23
2022-10-03T07:54:55.138Z,14.26
2022-10-03T07:57:38.301Z,14.29
2022-10-03T08:00:23.472Z,14.32
2022-10-03T08:03:24.704Z,14.31
2022-10-03T08:06:24.898Z,14.37
2022-10-03T08:09:23.515Z,14.42
2022-10-03T08:12:28.311Z,14.47
2022-10-03T08:15:07.243Z,14.52
2022-10-03T08:17:57.741Z,14.56
2022-10-03T08:20:46.191Z,14.60
2022-10-03T08:23:45.860Z,14.64
2022-10-03T08:26:18.958Z,14.67
2022-10-03T08:29:17.938Z,14.73
2022-10-03T08:32:15.630Z,14.77
2022-10-03T08:35:39.917Z,14.79
2022-10-03T08:38:41.945Z,14.83
2022-10-03T08:41:33.674Z,14.87
2022-10-03T08:44:37.570Z,14.91
2022-10-03T08:47:16.962Z,14.96
2022-10-03T08:50:27.861Z,15.02
2022-10-03T08:53:06.417Z,15.05
2022-10-03T08:55:52.267Z,15.07
2022-10-03T08:58:37.494Z,15.08
2022-10-03T09:01:28.643Z,15.11
2022-10-03T09:04:16.836Z,15.13
2022-10-03T09:07:16.139Z,15.14
2022-10-03T09:09:51.261Z,15.15
2022-10-03T09:12:24.128Z,15.16
2022-10-03T09:15:00.022Z,15.18
2022-10-03T09:18:00.549Z,15.18
2022-10-03T09:21:07.174Z,15.22
2022-10-03T09:24:01.131Z,15.26
2022-10-03T09:26:57.804Z,15.31
2022-10-03T09:29:47.712Z,15.35
2022-10-03T09:32:33.125Z,15.44
2022-10-03T09:35:08.866Z,15.55
2022-10-03T09:37:56.667Z,15.68
2022-10-03T09:40:53.479Z,15.78
2022-10-03T09:43:48.386Z,15.85
2022-10-03T09:46:34.055Z,15.94
2022-10-03T09:49:19.505Z,15.99
2022-10-03T09:52:04.458Z,16.05
2022-10-03T09:54:52.074Z,16.09
2022-10-03T09:57:27.829Z,16.16
2022-10-03T10:00:13.276Z,16.22
2022-10-03T10:03:21.568Z,16.33
2022-10-03T10:06:07.026Z,16.40
2022-10-03T10:08:58.169Z,16.45
2022-10-03T10:11:55.891Z,16.49
2022-10-03T10:14:30.155Z,16.52
2022-10-03T10:17:22.041Z,16.55
2022-10-03T10:19:48.916Z,16.59
2022-10-03T10:22:43.687Z,16.65
2022-10-03T10:25:55.805Z,16.68
2022-10-03T10:28:53.187Z,16.72
2022-10-03T10:31:47.696Z,16.75
2022-10-03T10:34:45.585Z,16.80
2022-10-03T10:37:21.527Z,16.85
2022-10-03T10:40:35.434Z,16.88
2022-10-03T10:43:27.348Z,16.95
2022-10-03T10:46:19.011Z,17.03
2022-10-03T10:49:15.884Z,17.06
2022-10-03T10:51:42.718Z,17.10
2022-10-03T10:54:21.535Z,17.15
2022-10-03T10:57:14.458Z,17.21
2022-10-03T10:59:56.127Z,17.27
2022-10-03T11:02:50.669Z,17.30
2022-10-03T11:05:54.887Z,17.33
2022-10-03T11:08:40.223Z,17.34
2022-10-03T11:11:48.424Z,17.35
2022-10-03T11:14:57.928Z,17.36
2022-10-03T11:17:54.038Z,17.35
2022-10-03T11:20:57.905Z,17.36
2022-10-03T11:23:55.660Z,17.37
2022-10-03T11:26:47.243Z,17.40
2022-10-03T11:29:53.006Z,17.43
2022-10-03T11:32:51.782Z,17.48
2022-10-03T11:35:43.316Z,17.51
2022-10-03T11:38:34.309Z,17.52
2022-10-03T11:41:25.349Z,17.55
2022-10-03T11:44:16.600Z,17.59
2022-10-03T11:46:54.782Z,17.60
2022-10-03T11:49:28.201Z,17.64
2022-10-03T11:51:57.667Z,17.68
2022-10-03T11:54:32.194Z,17.70
2022-10-03T11:57:16.764Z,17.74
2022-10-03T11:59:55.349Z,17.78
2022-10-03T12:03:00.500Z,17.83
2022-10-03T12:06:16.065Z,17.90
2022-10-03T12:08:55.964Z,17.96
2022-10-03T12:11:33.138Z,18.01
2022-10-03T12:14:24.850Z,18.09
2022-10-03T12:17:04.250Z,18.14
2022-10-03T12:19:54.977Z,18.19
2022-10-03T12:22:30.644Z,18.24
2022-10-03T12:25:31.998Z,18.23
2022-10-03T12:28:24.524Z,18.25
2022-10-03T12:31:01.494Z,18.22
2022-10-03T12:33:50.443Z,18.18
2022-10-03T12:36:33.223Z,18.18
2022-10-03T12:39:18.480Z,18.20
2022-10-03T12:42:14.698Z,18.20
2022-10-03T12:45:06.829Z,18.22
2022-10-03T12:48:01.662Z,18.24
2022-10-03T12:50:46.312Z,18.27
2022-10-03T12:53:16.159Z,18.29
2022-10-03T12:56:16.223Z,18.30
2022-10-03T12:59:20.582Z,18.31
2022-10-03T13:02:02.707Z,18.32
2022-10-03T13:04:47.929Z,18.36
2022-10-03T13:07:28.945Z,18.41
2022-10-03T13:10:20.657Z,18.41
2022-10-03T13:13:10.457Z,18.41
2022-10-03T13:15:49.334Z,18.43
2022-10-03T13:18:34.015Z,18.45
2022-10-03T13:21:41.097Z,18.48
2022-10-03T13:24:13.803Z,18.54
2022-10-03T13:26:54.926Z,18.58
2022-10-03T13:29:30.284Z,18.59
2022-10-03T13:31:57.260Z,18.63
2022-10-03T13:34:31.336Z,18.64
2022-10-03T13:37:24.137Z,18.66
2022-10-03T13:40:04.884Z,18.68
2022-10-03T13:42:54.346Z,18.70
2022-10-03T13:45:25.392Z,18.71
2022-10-03T13:47:59.039Z,18.74
2022-10-03T13:50:53.156Z,18.73
2022-10-03T13:53:36.838Z,18.74
2022-10-03T13:56:29.598Z,18.76
2022-10-03T13:59:14.458Z,18.74
2022-10-03T14:01:47.002Z,18.72
2022-10-03T14:04:41.778Z,18.69
2022-10-03T14:07:12.510Z,18.66
2022-10-03T14:10:07.444Z,18.64
2022-10-03T14:12:56.256Z,18.61
2022-10-03T14:15:47.755Z,18.62
2022-10-03T14:18:20.541Z,18.63
2022-10-03T14:21:05.528Z,18.64
2022-10-03T14:23:49.436Z,18.62
2022-10-03T14:26:33.791Z,18.62
2022-10-03T14:29:23.118Z,18.63
2022-10-03T14:32:28.281Z,18.63
2022-10-03T14:35:02.527Z,18.60
2022-10-03T14:37:32.251Z,18.59
2022-10-03T14:40:33.145Z,18.52
2022-10-03T14:43:21.576Z,18.51
2022-10-03T14:45:55.425Z,18.50
2022-10-03T14:48:28.403Z,18.50
2022-10-03T14:51:07.264Z,18.49
2022-10-03T14:53:34.622Z,18.50
2022-10-03T14:56:06.762Z,18.50
2022-10-03T14:58:44.667Z,18.50
2022-10-03T15:01:19.627Z,18.52
2022-10-03T15:04:13.910Z,18.52
2022-10-03T15:06:46.726Z,18.54
2022-10-03T15:09:40.353Z,18.55
2022-10-03T15:12:24.443Z,18.55
2022-10-03T15:15:03.265Z,18.55
2022-10-03T15:17:33.306Z,18.54
2022-10-03T15:20:02.668Z,18.56
2022-10-03T15:22:47.466Z,18.56
2022-10-03T15:25:36.116Z,18.57
2022-10-03T15:28:19.767Z,18.57
2022-10-03T15:30:48.075Z,18.57
2022-10-03T15:33:30.140Z,18.59
2022-10-03T15:36:20.478Z,18.61
2022-10-03T15:38:52.769Z,18.60
2022-10-03T15:41:32.006Z,18.60
2022-10-03T15:44:19.868Z,18.62
2022-10-03T15:46:54.308Z,18.63
2022-10-03T15:49:32.807Z,18.60
2022-10-03T15:52:21.165Z,18.60
2022-10-03T15:55:03.173Z,18.59
2022-10-03T15:57:45.572Z,18.58
2022-10-03T16:00:31.302Z,18.58
2022-10-03T16:03:16.301Z,18.57
2022-10-03T16:05:56.663Z,18.55
2022-10-03T16:08:30.267Z,18.53
2022-10-03T16:11:09.475Z,18.51
2022-10-03T16:13:45.051Z,18.51
2022-10-03T16:16:21.458Z,18.50
2022-10-03T16:18:52.069Z,18.45
2022-10-03T16:21:47.909Z,18.43
2022-10-03T16:24:40.768Z,18.39
2022-10-03T16:27:24.795Z,18.37
2022-10-03T16:29:59.093Z,18.33
2022-10-03T16:32:31.414Z,18.30
2022-10-03T16:35:02.843Z,18.30
2022-10-03T16:37:31.384Z,18.28
2022-10-03T16:40:04.912Z,18.24
2022-10-03T16:42:46.005Z,18.23
2022-10-03T16:45:25.736Z,18.21
2022-10-03T16:48:13.480Z,18.18
2022-10-03T16:50:50.124Z,18.16
2022-10-03T16:53:18.289Z,18.15
2022-10-03T16:56:00.469Z,18.13
2022-10-03T16:58:35.369Z,18.11
2022-10-03T17:01:27.399Z,18.09
2022-10-03T17:04:23.336Z,18.09
2022-10-03T17:07:03.272Z,18.08
2022-10-03T17:09:38.854Z,18.03
2022-10-03T17:12:13.900Z,18.00
2022-10-03T17:14:42.689Z,17.96
2022-10-03T17:17:36.861Z,17.97
2022-10-03T17:20:11.441Z,17.95
2022-10-03T17:22:44.390Z,17.92
2022-10-03T17:25:44.931Z,17.87
2022-10-03T17:28:25.635Z,17.84
2022-10-03T17:30:56.085Z,17.83
2022-10-03T17:33:35.615Z,17.84
2022-10-03T17:36:03.121Z,17.85
2022-10-03T17:38:52.552Z,17.87
2022-10-03T17:41:27.822Z,17.83
2022-10-03T17:44:04.880Z,17.80
2022-10-03T17:46:52.924Z,17.78
2022-10-03T17:49:50.611Z,17.77
2022-10-03T17:52:23.757Z,17.73
2022-10-03T17:55:07.078Z,17.72
2022-10-03T17:57:41.631Z,17.71
2022-10-03T18:00:19.448Z,17.67
2022-10-03T18:03:01.528Z,17.65
2022-10-03T18:05:36.102Z,17.64
2022-10-03T18:08:08.141Z,17.62
2022-10-03T18:10:39.175Z,17.62
2022-10-03T18:13:21.778Z,17.59
2022-10-03T18:16:05.275Z,17.57
2022-10-03T18:19:09.647Z,17.51
2022-10-03T18:21:54.650Z,17.47
2022-10-03T18:24:30.484Z,17.43
2022-10-03T18:27:11.487Z,17.42
2022-10-03T18:29:52.378Z,17.42
2022-10-03T18:32:22.789Z,17.40
2022-10-03T18:35:00.512Z,17.38
2022-10-03T18:37:27.229Z,17.35
2022-10-03T18:39:56.770Z,17.36
2022-10-03T18:42:28.400Z,17.33
2022-10-03T18:44:58.261Z,17.31
2022-10-03T18:47:33.535Z,17.29
2022-10-03T18:50:26.491Z,17.27
2022-10-03T18:52:59.872Z,17.24
2022-10-03T18:55:31.395Z,17.24
2022-10-03T18:58:19.987Z,17.24
2022-10-03T19:01:01.419Z,17.23
2022-10-03T19:03:49.911Z,17.22
2022-10-03T19:06:25.077Z,17.19
2022-10-03T19:09:07.787Z,17.18
2022-10-03T19:11:40.785Z,17.19
2022-10-03T19:14:16.567Z,17.22
2022-10-03T19:17:16.839Z,17.25
2022-10-03T19:20:00.898Z,17.24
2022-10-03T19:22:38.867Z,17.24
2022-10-03T19:25:17.813Z,17.24
2022-10-03T19:27:58.004Z,17.23
2022-10-03T19:30:27.527Z,17.23
2022-10-03T19:33:02.223Z,17.22
2022-10-03T19:35:30.720Z,17.23
2022-10-03T19:38:06.876Z,17.25
2022-10-03T19:40:38.888Z,17.23
2022-10-03T19:43:35.658Z,17.31
2022-10-03T19:46:27.231Z,17.28
2022-10-03T19:49:17.211Z,17.27
2022-10-03T19:51:44.295Z,17.25
2022-10-03T19:54:35.169Z,17.23
2022-10-03T19:57:04.715Z,17.22
2022-10-03T19:59:45.077Z,17.22
2022-10-03T20:02:12.524Z,17.21
2022-10-03T20:04:40.173Z,17.20
2022-10-03T20:07:17.969Z,17.22
2022-10-03T20:09:57.283Z,17.20
2022-10-03T20:12:29.334Z,17.20
2022-10-03T20:15:21.593Z,17.24
2022-10-03T20:17:50.082Z,17.22
2022-10-03T20:20:22.803Z,17.20
2022-10-03T20:22:49.928Z,17.21
2022-10-03T20:25:22.413Z,17.15
2022-10-03T20:27:54.604Z,17.17
2022-10-03T20:32:55.609Z,17.19
2022-10-03T20:36:11.986Z,17.19
2022-10-03T20:39:06.385Z,17.20
2022-10-03T20:41:45.796Z,17.19
2022-10-03T20:44:20.053Z,17.18
2022-10-03T20:47:02.985Z,17.17
2022-10-03T20:49:55.884Z,17.16
2022-10-03T20:52:24.765Z,17.13
2022-10-03T20:54:58.068Z,17.12
2022-10-03T20:57:29.858Z,17.10
2022-10-03T21:00:24.511Z,17.07
2022-10-03T21:03:26.598Z,17.06
2022-10-03T21:05:57.783Z,17.02
2022-10-03T21:08:24.561Z,16.99
2022-10-03T21:10:57.359Z,16.99
2022-10-03T21:13:30.860Z,17.01
2022-10-03T21:15:59.861Z,16.99
2022-10-03T21:18:31.499Z,16.99
2022-10-03T21:21:12.374Z,16.99
2022-10-03T21:24:04.507Z,16.97
2022-10-03T21:26:43.323Z,16.96
2022-10-03T21:29:25.535Z,16.92
2022-10-03T21:32:10.574Z,16.89
2022-10-03T21:35:03.456Z,16.87
2022-10-03T21:37:50.511Z,16.83
2022-10-03T21:40:53.177Z,16.81
2022-10-03T21:43:44.171Z,16.76
2022-10-03T21:46:36.882Z,16.73
2022-10-03T21:49:17.704Z,16.71
2022-10-03T21:51:47.292Z,16.71
2022-10-03T21:54:32.155Z,16.68
2022-10-03T21:57:01.593Z,16.66
2022-10-03T21:59:28.385Z,16.65
2022-10-03T22:02:05.189Z,16.66
2022-10-03T22:04:38.187Z,16.65
2022-10-03T22:07:16.536Z,16.64
2022-10-03T22:09:51.492Z,16.64
2022-10-03T22:12:18.595Z,16.64
2022-10-03T22:14:49.704Z,16.64
2022-10-03T22:17:25.201Z,16.66
2022-10-03T22:20:09.177Z,16.64
2022-10-03T22:22:44.895Z,16.62
2022-10-03T22:25:49.321Z,16.59
2022-10-03T22:28:29.059Z,16.60
2022-10-03T22:31:20.530Z,16.58
2022-10-03T22:34:19.581Z,16.57
2022-10-03T22:36:46.911Z,16.57
2022-10-03T22:39:17.223Z,16.58
2022-10-03T22:41:47.718Z,16.57
2022-10-03T22:44:18.186Z,16.56
2022-10-03T22:46:50.859Z,16.56
2022-10-03T22:49:30.498Z,16.54
2022-10-03T22:52:00.264Z,16.53
2022-10-03T22:54:33.853Z,16.52
2022-10-03T22:57:11.735Z,16.54
2022-10-03T23:00:01.076Z,16.54
2022-10-03T23:02:33.655Z,16.56
2022-10-03T23:05:05.266Z,16.57
2022-10-03T23:07:52.902Z,16.56
2022-10-03T23:10:27.821Z,16.57
2022-10-03T23:13:14.707Z,16.58
2022-10-03T23:15:46.827Z,16.59
2022-10-03T23:18:49.076Z,16.62
2022-10-03T23:21:28.114Z,16.63
2022-10-03T23:24:00.116Z,16.65
2022-10-03T23:26:29.901Z,16.65
2022-10-03T23:29:11.317Z,16.65
2022-10-03T23:31:56.489Z,16.63
2022-10-03T23:34:38.358Z,16.61
2022-10-03T23:37:14.099Z,16.60
2022-10-03T23:40:03.787Z,16.59
2022-10-03T23:42:33.329Z,16.60
2022-10-03T23:45:15.095Z,16.62
2022-10-03T23:47:50.964Z,16.63
2022-10-03T23:50:23.071Z,16.62
2022-10-03T23:52:55.399Z,16.63
2022-10-03T23:55:26.290Z,16.64
2022-10-03T23:57:54.092Z,16.65
